Time;durP1;ratioP1;P1;durP2;ratioP2;P2;SDS_P1;SDS_P2;PMS_P1;PMS_P2;Temp;Humidity;BMP_temperature;BMP_pressure;BME280_temperature;BME280_humidity;BME280_pressure;Samples;Min_cycle;Max_cycle;Signal;HPM_P1;HPM_P2
2022/06/05 00:00:10;;;;;;;4.80;3.40;;;18.00;51.50;;;;;;5041091;28;20036;-75
2022/06/05 00:02:55;;;;;;;4.10;3.17;;;18.00;51.60;;;;;;5066538;28;20031;-75
2022/06/05 00:05:29;;;;;;;7.28;4.20;;;18.00;51.60;;;;;;5072357;28;20033;-74
2022/06/05 00:08:36;;;;;;;7.22;4.78;;;18.00;51.70;;;;;;5041480;28;20055;-76
2022/06/05 00:11:03;;;;;;;5.18;4.00;;;17.90;51.70;;;;;;5042393;28;20148;-74
2022/06/05 00:13:40;;;;;;;6.50;4.00;;;17.90;51.70;;;;;;5065395;28;20060;-74
2022/06/05 00:16:08;;;;;;;9.40;4.30;;;17.90;51.90;;;;;;5052310;28;20056;-76
2022/06/05 00:18:37;;;;;;;6.43;4.05;;;17.90;52.00;;;;;;5050132;28;20460;-74
2022/06/05 00:21:04;;;;;;;5.68;4.05;;;17.80;51.90;;;;;;5061588;28;20115;-75
2022/06/05 00:23:30;;;;;;;7.22;4.00;;;17.80;52.10;;;;;;5054357;28;20033;-74
2022/06/05 00:26:14;;;;;;;6.18;4.22;;;17.80;52.20;;;;;;5054489;28;20037;-74
2022/06/05 00:29:01;;;;;;;4.95;3.97;;;17.70;52.30;;;;;;5068417;28;20055;-75
2022/06/05 00:31:48;;;;;;;6.18;4.35;;;17.70;52.50;;;;;;5052824;28;20031;-75
2022/06/05 00:34:14;;;;;;;7.38;3.88;;;17.70;52.40;;;;;;5066399;28;20032;-78
2022/06/05 00:37:02;;;;;;;4.65;3.72;;;17.70;52.50;;;;;;5076559;28;20037;-76
2022/06/05 00:40:03;;;;;;;5.65;3.75;;;17.60;52.60;;;;;;5058272;28;20037;-75
2022/06/05 00:42:32;;;;;;;7.70;4.70;;;17.60;52.70;;;;;;5065170;28;20246;-76
2022/06/05 00:45:04;;;;;;;7.07;4.28;;;17.60;52.70;;;;;;5063823;28;20043;-76
2022/06/05 00:47:32;;;;;;;6.80;4.95;;;17.60;52.80;;;;;;5058138;28;20404;-76
2022/06/05 00:50:04;;;;;;;5.82;4.90;;;17.50;52.80;;;;;;5051660;28;20090;-75
2022/06/05 00:52:34;;;;;;;6.40;3.93;;;17.50;52.90;;;;;;5059113;28;20811;-75
2022/06/05 00:55:00;;;;;;;8.02;4.85;;;17.40;52.80;;;;;;5051788;28;20482;-75
2022/06/05 00:57:29;;;;;;;5.82;4.22;;;17.50;53.10;;;;;;5069204;28;20029;-75
2022/06/05 00:59:57;;;;;;;7.53;4.50;;;17.40;53.10;;;;;;5069959;28;20074;-74
2022/06/05 01:02:23;;;;;;;7.68;4.68;;;17.40;53.20;;;;;;5062034;28;20025;-76
2022/06/05 01:04:50;;;;;;;7.32;4.78;;;17.40;53.30;;;;;;5069115;28;20036;-74
2022/06/05 01:07:17;;;;;;;7.50;4.55;;;17.30;53.40;;;;;;5065115;28;20025;-73
2022/06/05 01:09:46;;;;;;;7.45;5.10;;;17.30;53.40;;;;;;5068977;28;20044;-74
2022/06/05 01:12:39;;;;;;;6.20;4.82;;;17.30;53.50;;;;;;5051485;28;20029;-74
2022/06/05 01:15:25;;;;;;;9.60;4.43;;;17.20;53.60;;;;;;5035416;28;20108;-76
2022/06/05 01:18:17;;;;;;;7.10;5.65;;;17.20;53.60;;;;;;5054507;28;20131;-76
2022/06/05 01:20:51;;;;;;;7.65;4.57;;;17.20;53.80;;;;;;5066666;28;20393;-76
2022/06/05 01:23:36;;;;;;;7.38;5.35;;;17.10;53.50;;;;;;5070490;28;20033;-76
2022/06/05 01:26:01;;;;;;;6.10;5.00;;;17.10;53.80;;;;;;5069026;28;20048;-75
2022/06/05 01:28:32;;;;;;;6.65;5.93;;;17.10;53.80;;;;;;5069002;28;20389;-75
2022/06/05 01:31:09;;;;;;;5.85;5.13;;;17.00;53.80;;;;;;5069750;28;20036;-75
2022/06/05 01:33:43;;;;;;;6.20;5.07;;;17.00;53.90;;;;;;5052061;28;20059;-73
2022/06/05 01:36:17;;;;;;;8.10;4.88;;;16.90;53.90;;;;;;5051265;28;20154;-76
2022/06/05 01:38:54;;;;;;;7.40;5.13;;;16.90;54.00;;;;;;5069393;28;20028;-74
2022/06/05 01:41:36;;;;;;;5.70;4.82;;;16.90;54.00;;;;;;5063566;28;20399;-74
2022/06/05 01:44:08;;;;;;;7.77;5.43;;;16.90;54.30;;;;;;5061734;28;20060;-75
2022/06/05 01:46:37;;;;;;;6.72;5.82;;;16.90;54.20;;;;;;5030590;28;20048;-75
2022/06/05 01:49:27;;;;;;;7.13;4.90;;;16.80;54.10;;;;;;5048580;28;20569;-75
2022/06/05 01:51:59;;;;;;;8.15;5.10;;;16.80;54.30;;;;;;5068407;28;20467;-75
2022/06/05 01:54:33;;;;;;;8.23;5.95;;;16.80;54.30;;;;;;5060709;28;20036;-74
2022/06/05 01:57:01;;;;;;;6.57;4.80;;;16.70;54.20;;;;;;5068412;28;20039;-75
2022/06/05 01:59:45;;;;;;;7.35;4.97;;;16.70;54.20;;;;;;5064524;28;20032;-74
2022/06/05 02:02:18;;;;;;;7.65;5.40;;;16.70;54.30;;;;;;5067226;28;20721;-74
2022/06/05 02:04:50;;;;;;;8.20;5.40;;;16.70;54.40;;;;;;5059894;28;20082;-72
2022/06/05 02:07:22;;;;;;;6.97;5.63;;;16.70;54.50;;;;;;5061238;28;20033;-74
2022/06/05 02:10:00;;;;;;;7.95;5.55;;;16.60;54.30;;;;;;5064071;28;20040;-73
2022/06/05 02:12:26;;;;;;;5.38;4.63;;;16.70;54.60;;;;;;5048862;28;20028;-74
2022/06/05 02:14:52;;;;;;;6.85;5.50;;;16.60;54.40;;;;;;5068685;28;20041;-73
2022/06/05 02:17:18;;;;;;;6.63;4.72;;;16.60;54.50;;;;;;5057657;28;20028;-73
2022/06/05 02:19:45;;;;;;;7.45;5.32;;;16.60;54.70;;;;;;5065200;28;20407;-73
2022/06/05 02:22:24;;;;;;;7.38;5.00;;;16.60;54.70;;;;;;5068861;28;20116;-74
2022/06/05 02:24:52;;;;;;;7.10;5.57;;;16.60;54.90;;;;;;5058526;28;20021;-74
2022/06/05 02:27:22;;;;;;;6.47;4.68;;;16.50;54.60;;;;;;5067022;28;20033;-74
2022/06/05 02:29:48;;;;;;;5.07;4.57;;;16.50;54.80;;;;;;5067783;28;20045;-74
2022/06/05 02:32:45;;;;;;;7.60;4.90;;;16.50;54.80;;;;;;5068215;28;20755;-73
2022/06/05 02:35:49;;;;;;;5.18;4.68;;;16.50;55.00;;;;;;5059381;28;20052;-76
2022/06/05 02:38:21;;;;;;;7.18;4.88;;;16.50;55.10;;;;;;5051633;28;20125;-74
2022/06/05 02:40:55;;;;;;;6.53;4.75;;;16.50;54.90;;;;;;5049991;28;20051;-74
2022/06/05 02:43:33;;;;;;;5.63;5.10;;;16.50;55.00;;;;;;5059778;28;20032;-74
2022/06/05 02:46:26;;;;;;;6.32;5.30;;;16.40;54.90;;;;;;5064190;28;20028;-73
2022/06/05 02:49:10;;;;;;;7.53;5.72;;;16.40;55.00;;;;;;5058252;28;20036;-73
2022/06/05 02:51:41;;;;;;;7.13;5.50;;;16.40;55.00;;;;;;5068359;28;20029;-74
2022/06/05 02:54:07;;;;;;;7.18;5.07;;;16.40;55.00;;;;;;5062196;28;20032;-75
2022/06/05 02:56:33;;;;;;;5.97;5.47;;;16.40;55.00;;;;;;5060347;28;20033;-75
2022/06/05 02:59:02;;;;;;;5.68;4.95;;;16.40;55.10;;;;;;5067897;28;20029;-75
2022/06/05 03:04:12;;;;;;;6.40;5.22;;;16.40;55.20;;;;;;5068051;28;20349;-75
2022/06/05 03:06:41;;;;;;;6.75;5.45;;;16.30;55.00;;;;;;5067121;28;20020;-75
2022/06/05 03:09:07;;;;;;;6.63;5.00;;;16.40;55.30;;;;;;5061878;28;20036;-75
2022/06/05 03:11:33;;;;;;;6.20;5.57;;;16.40;55.30;;;;;;5063496;28;20060;-75
2022/06/05 03:13:59;;;;;;;6.57;5.72;;;16.30;55.20;;;;;;5066328;28;20113;-76
2022/06/05 03:16:26;;;;;;;7.38;5.63;;;16.30;55.30;;;;;;5064262;28;20495;-74
2022/06/05 03:18:52;;;;;;;5.88;5.28;;;16.30;55.30;;;;;;5049845;28;20044;-75
2022/06/05 03:21:18;;;;;;;5.28;4.72;;;16.30;55.30;;;;;;5037269;28;20028;-74
2022/06/05 03:23:45;;;;;;;7.05;5.47;;;16.30;55.30;;;;;;5056299;28;20032;-74
2022/06/05 03:26:12;;;;;;;6.57;5.65;;;16.30;55.40;;;;;;5051097;28;20657;-75
2022/06/05 03:28:38;;;;;;;5.97;4.85;;;16.30;55.50;;;;;;5070747;28;20033;-75
2022/06/05 03:31:06;;;;;;;6.57;5.30;;;16.30;55.50;;;;;;5070463;28;20384;-76
2022/06/05 03:33:32;;;;;;;6.07;5.30;;;16.30;55.50;;;;;;5052328;28;20048;-75
2022/06/05 03:35:58;;;;;;;6.22;5.68;;;16.30;55.60;;;;;;5070541;28;20020;-74
2022/06/05 03:38:25;;;;;;;5.05;4.60;;;16.30;56.20;;;;;;5063613;28;20066;-76
2022/06/05 03:40:51;;;;;;;6.05;5.45;;;16.20;55.50;;;;;;5069585;28;20035;-76
2022/06/05 03:43:17;;;;;;;7.18;5.45;;;16.20;55.50;;;;;;5069674;28;20028;-75
2022/06/05 03:45:44;;;;;;;5.30;4.72;;;16.20;55.60;;;;;;5060691;28;20088;-75
2022/06/05 03:48:10;;;;;;;4.95;4.55;;;16.20;55.70;;;;;;5068934;28;20060;-75
2022/06/05 03:50:39;;;;;;;5.85;5.22;;;16.20;55.70;;;;;;5061928;28;20483;-75
2022/06/05 03:53:05;;;;;;;11.63;5.20;;;16.20;55.80;;;;;;5061997;28;20316;-75
2022/06/05 03:55:32;;;;;;;5.63;4.97;;;16.20;55.80;;;;;;5046618;28;20031;-75
2022/06/05 03:57:58;;;;;;;5.82;5.20;;;16.20;55.90;;;;;;5059249;28;20083;-76
2022/06/05 04:00:24;;;;;;;6.00;5.40;;;16.10;55.70;;;;;;5067889;28;20357;-75
2022/06/05 04:02:50;;;;;;;7.20;6.10;;;16.10;55.70;;;;;;5053915;28;20071;-75
2022/06/05 04:05:18;;;;;;;5.97;4.72;;;16.10;55.70;;;;;;5071935;28;20119;-75
2022/06/05 04:07:44;;;;;;;5.30;4.65;;;16.10;55.80;;;;;;5071786;28;20072;-75
2022/06/05 04:10:13;;;;;;;5.55;5.05;;;16.10;55.80;;;;;;5042238;28;20036;-75
2022/06/05 04:12:40;;;;;;;7.68;5.93;;;16.10;55.90;;;;;;5071630;28;20033;-75
2022/06/05 04:15:07;;;;;;;4.80;4.30;;;16.10;55.90;;;;;;5062021;28;20458;-74
2022/06/05 04:17:34;;;;;;;5.38;4.70;;;16.10;55.90;;;;;;5053575;28;20384;-75
2022/06/05 04:20:00;;;;;;;5.20;4.70;;;16.10;56.00;;;;;;5068534;28;20032;-75
2022/06/05 04:22:26;;;;;;;6.13;5.13;;;16.10;56.00;;;;;;5064844;28;20032;-75
2022/06/05 04:24:51;;;;;;;6.18;5.57;;;16.10;56.00;;;;;;5063046;28;20035;-75
2022/06/05 04:27:17;;;;;;;6.57;5.93;;;16.10;56.10;;;;;;5071064;28;20384;-76
2022/06/05 04:29:43;;;;;;;5.68;4.97;;;16.10;56.10;;;;;;5070963;28;20078;-74
2022/06/05 04:32:09;;;;;;;5.35;4.85;;;16.10;56.10;;;;;;5064995;28;20232;-74
2022/06/05 04:34:37;;;;;;;6.25;4.40;;;16.10;56.10;;;;;;5069673;28;20028;-76
2022/06/05 04:37:03;;;;;;;5.20;4.70;;;16.10;56.20;;;;;;5071365;28;20032;-74
2022/06/05 04:39:28;;;;;;;5.18;4.75;;;16.10;56.20;;;;;;5059472;28;20067;-74
2022/06/05 04:41:54;;;;;;;5.35;4.55;;;16.10;56.20;;;;;;5052747;28;20032;-74
2022/06/05 04:44:20;;;;;;;6.35;4.82;;;16.10;56.20;;;;;;5070994;28;20570;-74
2022/06/05 04:46:46;;;;;;;5.88;5.05;;;16.10;56.20;;;;;;5064306;28;20123;-75
2022/06/05 04:49:13;;;;;;;6.15;5.30;;;16.20;56.50;;;;;;5060220;28;20040;-76
2022/06/05 04:51:40;;;;;;;5.88;5.30;;;16.20;56.50;;;;;;5070487;28;20828;-76
2022/06/05 04:54:08;;;;;;;6.55;4.88;;;16.20;56.50;;;;;;5064679;28;20024;-76
2022/06/05 04:56:34;;;;;;;6.32;4.72;;;16.20;56.50;;;;;;5064414;28;20025;-76
2022/06/05 04:59:01;;;;;;;4.95;4.45;;;16.20;56.60;;;;;;5070416;28;20045;-77
2022/06/05 05:01:32;;;;;;;5.32;4.43;;;16.10;56.40;;;;;;5071024;28;20515;-75
2022/06/05 05:04:02;;;;;;;5.70;5.10;;;16.20;56.70;;;;;;5047242;28;20032;-76
2022/06/05 05:06:29;;;;;;;4.65;4.25;;;16.10;56.50;;;;;;5067669;28;20024;-76
2022/06/05 05:08:55;;;;;;;8.68;4.97;;;16.20;56.80;;;;;;5066880;28;20085;-77
2022/06/05 05:11:22;;;;;;;5.68;5.05;;;16.20;56.80;;;;;;5063026;28;20025;-76
2022/06/05 05:13:50;;;;;;;6.38;4.88;;;16.20;56.80;;;;;;5065686;28;20106;-76
2022/06/05 05:16:16;;;;;;;4.32;3.92;;;16.20;56.80;;;;;;5065976;28;20021;-76
2022/06/05 05:18:43;;;;;;;5.22;4.30;;;16.20;56.80;;;;;;5051161;28;20135;-76
2022/06/05 05:21:12;;;;;;;6.53;4.45;;;16.20;56.80;;;;;;5068885;28;20036;-74
2022/06/05 05:23:38;;;;;;;5.05;4.50;;;16.20;56.90;;;;;;5066937;28;20033;-75
2022/06/05 05:26:07;;;;;;;5.43;4.13;;;16.20;56.90;;;;;;5058755;28;20098;-75
2022/06/05 05:28:33;;;;;;;4.80;4.28;;;16.20;56.90;;;;;;5049333;28;20039;-75
2022/06/05 05:30:58;;;;;;;6.15;5.55;;;16.20;56.90;;;;;;5049718;28;20059;-75
2022/06/05 05:33:24;;;;;;;5.22;3.95;;;16.20;56.90;;;;;;5067320;28;20039;-77
2022/06/05 05:35:51;;;;;;;4.45;3.63;;;16.20;56.90;;;;;;5064416;28;20075;-77
2022/06/05 05:38:17;;;;;;;4.57;3.92;;;16.30;57.10;;;;;;5066998;28;20423;-75
2022/06/05 05:43:27;;;;;;;5.78;4.47;;;16.30;57.10;;;;;;5066146;28;20128;-77
2022/06/05 05:45:53;;;;;;;5.78;5.05;;;16.30;57.10;;;;;;5067879;28;20062;-77
2022/06/05 05:48:19;;;;;;;6.30;4.00;;;16.30;57.10;;;;;;5047450;28;20060;-76
2022/06/05 05:50:46;;;;;;;4.80;4.25;;;16.30;57.10;;;;;;5044060;28;20046;-76
2022/06/05 05:53:12;;;;;;;4.20;3.78;;;16.30;57.10;;;;;;5061220;28;20480;-76
2022/06/05 05:55:38;;;;;;;5.05;4.55;;;16.40;57.30;;;;;;5053321;28;20025;-76
2022/06/05 05:58:04;;;;;;;4.95;4.55;;;16.40;57.30;;;;;;5028450;28;20025;-79
2022/06/05 06:00:30;;;;;;;4.32;3.92;;;16.40;57.30;;;;;;5045117;28;20031;-77
2022/06/05 06:02:57;;;;;;;4.65;3.92;;;16.40;57.20;;;;;;5065777;28;20029;-77
2022/06/05 06:05:23;;;;;;;4.53;4.10;;;16.50;57.40;;;;;;5062523;28;20595;-75
2022/06/05 06:07:49;;;;;;;3.75;3.45;;;16.40;57.20;;;;;;5059992;28;20613;-77
2022/06/05 06:10:15;;;;;;;4.30;3.85;;;16.50;57.30;;;;;;5028170;28;20032;-78
2022/06/05 06:12:41;;;;;;;4.25;3.75;;;16.50;57.30;;;;;;5059853;28;20567;-78
2022/06/05 06:15:08;;;;;;;4.07;3.78;;;16.50;57.20;;;;;;5031192;28;20047;-76
2022/06/05 06:17:34;;;;;;;4.60;3.80;;;16.60;57.40;;;;;;5062991;28;20067;-76
2022/06/05 06:20:00;;;;;;;5.82;3.95;;;16.60;57.30;;;;;;5059000;28;20068;-75
2022/06/05 06:22:26;;;;;;;3.63;3.33;;;16.70;57.50;;;;;;5024854;28;20020;-76
2022/06/05 06:24:52;;;;;;;3.65;3.35;;;16.70;57.40;;;;;;5066123;28;20573;-76
2022/06/05 06:27:18;;;;;;;4.30;3.90;;;16.80;57.60;;;;;;5055745;28;20815;-77
2022/06/05 06:29:44;;;;;;;3.17;2.88;;;16.80;57.50;;;;;;5063808;28;20068;-76
2022/06/05 06:32:10;;;;;;;4.30;3.22;;;16.80;57.40;;;;;;5064252;28;20060;-77
2022/06/05 06:34:36;;;;;;;3.90;3.25;;;16.90;57.50;;;;;;5063047;28;20032;-77
2022/06/05 06:37:03;;;;;;;3.70;2.97;;;16.90;57.30;;;;;;5060793;28;20039;-76
2022/06/05 06:39:28;;;;;;;2.95;2.75;;;17.00;57.40;;;;;;5045799;28;20818;-77
2022/06/05 06:41:55;;;;;;;3.20;2.90;;;17.00;57.30;;;;;;5047103;28;20071;-77
2022/06/05 06:44:21;;;;;;;3.65;3.03;;;17.00;57.20;;;;;;5045198;28;20037;-78
2022/06/05 06:46:47;;;;;;;4.10;3.03;;;17.10;57.40;;;;;;5041247;28;20064;-76
2022/06/05 06:49:13;;;;;;;4.30;3.08;;;17.10;57.20;;;;;;5061643;28;20071;-78
2022/06/05 06:51:40;;;;;;;2.80;2.60;;;17.10;57.20;;;;;;5028904;28;20040;-77
2022/06/05 06:54:07;;;;;;;3.90;2.53;;;17.10;57.20;;;;;;5040226;28;20048;-76
2022/06/05 06:56:36;;;;;;;3.00;2.80;;;17.10;57.10;;;;;;5037915;28;20380;-78
2022/06/05 06:59:04;;;;;;;3.05;2.75;;;17.10;57.20;;;;;;5048770;28;20119;-76
2022/06/05 07:01:29;;;;;;;2.92;2.65;;;17.10;57.20;;;;;;5045184;28;20091;-77
2022/06/05 07:03:55;;;;;;;3.03;2.50;;;17.10;57.10;;;;;;5069356;28;20032;-77
2022/06/05 07:06:21;;;;;;;3.33;2.78;;;17.10;57.10;;;;;;5063338;28;20021;-78
2022/06/05 07:08:49;;;;;;;3.35;2.65;;;17.10;57.10;;;;;;5066627;28;20033;-78
2022/06/05 07:11:16;;;;;;;2.70;2.50;;;17.10;57.10;;;;;;5052957;28;20037;-78
2022/06/05 07:13:42;;;;;;;2.97;2.67;;;17.10;57.10;;;;;;5062351;28;20088;-77
2022/06/05 07:16:10;;;;;;;3.03;2.72;;;17.10;57.10;;;;;;5032122;28;20050;-78
2022/06/05 07:18:37;;;;;;;3.10;2.80;;;17.10;57.10;;;;;;5025748;28;20029;-77
2022/06/05 07:21:09;;;;;;;2.83;2.53;;;17.10;57.10;;;;;;5046022;28;20112;-76
2022/06/05 07:23:36;;;;;;;4.28;1.95;;;17.10;57.20;;;;;;5033035;28;20298;-77
2022/06/05 07:26:02;;;;;;;3.40;2.60;;;17.10;57.40;;;;;;5041264;28;20030;-77
2022/06/05 07:28:29;;;;;;;2.60;2.10;;;17.20;57.90;;;;;;5052844;28;20144;-76
2022/06/05 07:30:55;;;;;;;2.25;1.75;;;17.10;58.10;;;;;;5067142;28;20115;-76
2022/06/05 07:33:21;;;;;;;2.20;1.63;;;17.20;58.20;;;;;;5051781;28;20032;-76
2022/06/05 07:35:55;;;;;;;2.78;2.13;;;17.20;58.20;;;;;;5066331;28;20056;-76
2022/06/05 07:38:21;;;;;;;2.35;2.00;;;17.20;58.30;;;;;;5048232;28;20070;-81
2022/06/05 07:40:47;;;;;;;2.45;1.85;;;17.20;58.30;;;;;;5066286;28;20037;-78
2022/06/05 07:43:13;;;;;;;2.20;1.95;;;17.30;58.50;;;;;;5031669;28;20021;-75
2022/06/05 07:45:43;;;;;;;3.25;2.13;;;17.30;58.50;;;;;;5066306;28;20093;-77
2022/06/05 07:48:09;;;;;;;2.42;2.10;;;17.30;58.40;;;;;;5065923;28;20127;-76
2022/06/05 07:54:26;;;;;;;2.00;1.90;;;17.30;58.40;;;;;;5041744;28;20080;-77
2022/06/05 07:56:05;;;;;;;1.90;1.70;;;17.30;58.40;;;;;;5062044;28;20300;-78
2022/06/05 07:58:31;;;;;;;7.47;1.77;;;17.40;58.60;;;;;;5051594;28;20305;-79
2022/06/05 08:00:57;;;;;;;6.70;1.60;;;17.40;58.80;;;;;;5026459;28;20206;-78
2022/06/05 08:03:23;;;;;;;1.73;1.33;;;17.40;59.20;;;;;;5048229;28;20075;-78
2022/06/05 08:05:48;;;;;;;2.03;1.52;;;17.40;59.40;;;;;;5067036;28;20409;-77
2022/06/05 08:08:14;;;;;;;6.88;1.40;;;17.50;59.80;;;;;;5061556;28;20024;-78
2022/06/05 08:10:40;;;;;;;4.03;1.40;;;17.60;60.00;;;;;;5060502;28;20029;-79
2022/06/05 08:13:06;;;;;;;1.52;1.20;;;17.60;60.00;;;;;;5048485;28;20024;-75
2022/06/05 08:15:32;;;;;;;1.60;1.42;;;17.80;60.30;;;;;;5066249;28;20027;-78
2022/06/05 08:17:58;;;;;;;2.38;1.23;;;17.90;60.30;;;;;;5061765;28;20020;-76
2022/06/05 08:20:24;;;;;;;2.70;1.65;;;17.90;60.30;;;;;;5063118;28;20023;-76
2022/06/05 08:22:50;;;;;;;1.73;1.42;;;18.10;60.50;;;;;;5066686;28;20120;-75
2022/06/05 08:25:16;;;;;;;2.38;1.17;;;18.20;60.60;;;;;;5064833;28;20037;-75
2022/06/05 08:27:42;;;;;;;1.27;1.20;;;18.20;60.40;;;;;;5060557;28;20037;-75
2022/06/05 08:30:08;;;;;;;1.55;1.30;;;18.30;60.60;;;;;;5064313;28;20048;-76
2022/06/05 08:32:34;;;;;;;0.98;0.80;;;18.40;60.50;;;;;;5045390;28;20150;-76
2022/06/05 08:35:01;;;;;;;1.30;1.20;;;18.50;60.40;;;;;;5065391;28;20091;-76
2022/06/05 08:43:46;;;;;;;1.10;0.90;;;18.80;59.90;;;;;;5058761;28;20070;-76
2022/06/05 08:46:26;;;;;;;1.27;1.10;;;18.80;59.50;;;;;;5003978;28;20037;-76
2022/06/05 08:49:01;;;;;;;2.92;1.08;;;18.80;59.30;;;;;;5026747;28;20052;-77
2022/06/05 08:51:43;;;;;;;1.40;0.93;;;18.80;59.20;;;;;;5034457;28;20428;-77
2022/06/05 08:54:20;;;;;;;1.10;1.00;;;18.90;59.20;;;;;;5054439;28;20079;-82
2022/06/05 08:57:14;;;;;;;3.10;0.90;;;18.80;59.00;;;;;;5023397;28;20032;-79
2022/06/05 09:00:03;;;;;;;1.02;0.80;;;18.80;58.90;;;;;;5021598;28;20049;-82
2022/06/05 09:02:48;;;;;;;1.80;1.42;;;18.90;59.00;;;;;;5037935;28;20037;-81
2022/06/05 09:05:24;;;;;;;1.23;1.13;;;18.80;58.70;;;;;;5029496;28;20032;-94
2022/06/05 09:07:55;;;;;;;1.20;1.10;;;18.90;58.80;;;;;;5024349;28;20029;-87
2022/06/05 09:10:21;;;;;;;1.55;1.17;;;18.90;58.70;;;;;;5044076;28;20071;-76
2022/06/05 09:12:57;;;;;;;1.70;1.00;;;18.90;58.60;;;;;;5029630;28;20029;-78
2022/06/05 09:15:48;;;;;;;1.70;1.17;;;18.90;58.50;;;;;;5049906;28;20033;-81
2022/06/05 09:18:22;;;;;;;1.13;1.05;;;18.90;58.30;;;;;;5048404;28;20021;-75
2022/06/05 09:20:53;;;;;;;1.80;1.05;;;19.00;58.40;;;;;;5048727;28;20033;-77
2022/06/05 09:23:34;;;;;;;1.00;0.90;;;19.00;58.30;;;;;;5050225;28;20035;-76
2022/06/05 09:26:13;;;;;;;1.33;1.15;;;19.00;58.80;;;;;;5031258;28;20048;-77
2022/06/05 09:28:49;;;;;;;2.92;1.80;;;19.10;58.40;;;;;;5030711;28;20033;-78
2022/06/05 09:31:25;;;;;;;1.38;1.15;;;19.10;58.20;;;;;;5037429;28;20188;-76
2022/06/05 09:33:54;;;;;;;1.00;1.00;;;19.10;58.10;;;;;;5048660;28;20032;-76
2022/06/05 09:36:25;;;;;;;0.90;0.90;;;19.10;58.00;;;;;;5046765;28;20436;-76
2022/06/05 09:39:13;;;;;;;1.20;1.10;;;19.20;58.00;;;;;;5045425;28;20037;-77
2022/06/05 09:41:57;;;;;;;0.73;0.73;;;19.20;57.80;;;;;;5030194;28;20068;-76
2022/06/05 09:44:26;;;;;;;1.90;1.50;;;19.30;57.80;;;;;;5028972;28;20100;-76
2022/06/05 09:47:08;;;;;;;0.77;0.77;;;19.40;57.80;;;;;;5027851;28;20504;-74
2022/06/05 09:49:45;;;;;;;0.90;0.90;;;19.50;57.80;;;;;;5028123;28;20237;-78
2022/06/05 09:52:22;;;;;;;1.67;1.55;;;19.50;57.60;;;;;;5042754;28;20040;-78
2022/06/05 09:54:55;;;;;;;1.60;1.23;;;19.70;57.70;;;;;;5049131;28;20032;-78
2022/06/05 10:00:42;;;;;;;2.67;1.67;;;19.90;57.50;;;;;;5048784;28;20074;-78
2022/06/05 10:03:14;;;;;;;2.22;1.58;;;20.10;57.60;;;;;;5044839;28;20544;-78
2022/06/05 10:05:45;;;;;;;2.83;2.03;;;20.10;57.80;;;;;;5039380;28;20037;-79
2022/06/05 10:08:23;;;;;;;5.43;2.08;;;20.20;57.90;;;;;;5031103;28;20025;-80
2022/06/05 10:10:58;;;;;;;3.53;1.63;;;20.30;58.90;;;;;;5030397;28;20041;-79
2022/06/05 10:13:45;;;;;;;4.13;2.28;;;20.40;58.60;;;;;;5028394;28;20218;-81
2022/06/05 10:16:21;;;;;;;4.80;2.05;;;20.40;58.90;;;;;;5030694;28;20033;-78
2022/06/05 10:19:21;;;;;;;2.20;1.85;;;20.40;58.90;;;;;;5040904;28;20029;-76
2022/06/05 10:21:58;;;;;;;2.55;1.23;;;20.50;59.20;;;;;;5026476;28;20039;-75
2022/06/05 10:24:33;;;;;;;1.63;1.30;;;20.50;59.20;;;;;;5046578;28;20056;-77
2022/06/05 10:27:02;;;;;;;3.80;1.60;;;20.50;59.20;;;;;;5025229;28;20046;-76
2022/06/05 10:29:33;;;;;;;1.73;1.63;;;20.50;59.30;;;;;;5047500;28;20368;-78
2022/06/05 10:32:32;;;;;;;1.83;1.20;;;20.50;59.30;;;;;;5029861;28;20117;-77
2022/06/05 10:35:36;;;;;;;3.13;1.48;;;20.60;59.60;;;;;;5044515;28;20037;-75
2022/06/05 10:38:19;;;;;;;1.65;1.33;;;20.60;60.10;;;;;;5029427;28;20036;-76
2022/06/05 10:40:58;;;;;;;2.63;1.80;;;20.60;59.40;;;;;;5044379;28;20036;-78
2022/06/05 10:43:29;;;;;;;2.90;1.90;;;20.60;59.50;;;;;;5043214;28;20192;-77
2022/06/05 10:46:02;;;;;;;2.33;1.67;;;20.60;59.50;;;;;;5048440;28;20035;-77
2022/06/05 10:48:55;;;;;;;1.40;1.30;;;20.70;59.70;;;;;;5043587;28;20048;-77
2022/06/05 10:51:50;;;;;;;2.00;1.80;;;20.70;59.70;;;;;;5025884;28;20036;-76
2022/06/05 10:54:29;;;;;;;1.98;1.45;;;20.70;59.50;;;;;;5015548;28;20477;-75
2022/06/05 10:57:19;;;;;;;2.65;1.80;;;20.70;59.40;;;;;;5041841;28;20029;-78
2022/06/05 11:00:16;;;;;;;2.80;1.80;;;20.70;59.30;;;;;;5037064;28;20079;-77
2022/06/05 11:02:53;;;;;;;3.35;1.77;;;20.70;59.30;;;;;;5042541;28;20025;-76
2022/06/05 11:05:51;;;;;;;2.10;1.88;;;20.70;59.20;;;;;;5036113;28;20037;-75
2022/06/05 11:09:02;;;;;;;2.67;2.38;;;20.60;59.10;;;;;;5011660;28;20112;-76
2022/06/05 11:14:33;;;;;;;2.22;1.95;;;20.60;59.60;;;;;;5019941;28;20480;-78
2022/06/05 11:17:22;;;;;;;2.13;1.92;;;20.60;59.00;;;;;;5027765;28;20492;-74
2022/06/05 11:20:14;;;;;;;1.75;1.65;;;20.60;59.10;;;;;;5043527;28;20393;-75
2022/06/05 11:22:55;;;;;;;2.42;2.22;;;20.60;59.10;;;;;;5013126;28;20237;-76
2022/06/05 11:25:59;;;;;;;2.78;2.53;;;20.60;59.20;;;;;;5028559;28;20024;-74
2022/06/05 11:28:47;;;;;;;2.85;2.08;;;20.60;59.30;;;;;;5047510;28;20040;-76
2022/06/05 11:31:19;;;;;;;3.08;2.53;;;20.70;59.50;;;;;;5043538;28;20039;-75
2022/06/05 11:34:16;;;;;;;3.40;2.75;;;20.70;59.50;;;;;;5028161;28;20127;-74
2022/06/05 11:36:53;;;;;;;4.03;3.22;;;20.70;59.80;;;;;;5023317;28;20021;-76
2022/06/05 11:39:49;;;;;;;3.42;2.72;;;20.70;59.80;;;;;;5046106;28;20114;-76
2022/06/05 11:42:27;;;;;;;8.00;3.75;;;20.70;60.10;;;;;;5028948;28;20060;-76
2022/06/05 11:45:14;;;;;;;7.10;3.20;;;20.70;60.30;;;;;;5046838;28;20355;-76
2022/06/05 11:47:52;;;;;;;6.15;3.55;;;20.70;60.60;;;;;;5038788;28;20055;-74
2022/06/05 11:50:33;;;;;;;4.32;3.05;;;20.70;61.10;;;;;;5042517;28;20471;-75
2022/06/05 11:53:21;;;;;;;4.70;3.00;;;20.70;61.40;;;;;;5045683;28;20029;-80
2022/06/05 11:56:22;;;;;;;4.03;3.30;;;20.70;61.40;;;;;;5024747;28;20070;-79
2022/06/05 11:59:39;;;;;;;3.05;2.75;;;20.70;61.30;;;;;;5030144;28;20052;-74
2022/06/05 12:02:11;;;;;;;4.22;3.78;;;20.70;61.20;;;;;;4973215;28;20042;-81
2022/06/05 12:05:00;;;;;;;3.53;3.22;;;20.80;60.70;;;;;;5047858;28;20051;-83
2022/06/05 12:07:27;;;;;;;3.95;3.65;;;20.80;59.80;;;;;;5018567;28;20028;-80
2022/06/05 12:09:57;;;;;;;4.07;3.78;;;20.70;59.40;;;;;;5042386;28;20036;-89
2022/06/05 12:12:35;;;;;;;3.80;3.50;;;20.60;58.80;;;;;;5025469;28;20041;-88
2022/06/05 12:15:19;;;;;;;5.13;4.25;;;20.60;58.60;;;;;;5046885;28;20071;-87
2022/06/05 12:17:55;;;;;;;5.05;4.57;;;20.50;58.20;;;;;;5034005;28;20052;-90
2022/06/05 12:20:36;;;;;;;4.93;4.47;;;20.50;58.10;;;;;;5031567;28;20043;-86
2022/06/05 12:23:24;;;;;;;4.78;4.35;;;20.40;58.50;;;;;;5032838;28;20045;-91
2022/06/05 12:26:00;;;;;;;4.82;4.35;;;20.30;57.70;;;;;;5010893;28;20357;-90
2022/06/05 12:28:34;;;;;;;5.82;4.45;;;20.20;57.50;;;;;;5031131;28;20040;-93
2022/06/05 12:31:09;;;;;;;4.18;3.78;;;20.10;57.40;;;;;;5051525;28;20029;-91
2022/06/05 12:34:00;;;;;;;5.22;4.80;;;20.00;57.30;;;;;;5050597;28;20044;-88
2022/06/05 12:36:58;;;;;;;5.25;4.80;;;19.90;57.20;;;;;;5039535;28;20035;-89
2022/06/05 12:39:33;;;;;;;4.63;4.15;;;19.70;57.10;;;;;;5030011;28;20029;-91
2022/06/05 12:42:30;;;;;;;5.72;4.88;;;19.60;57.10;;;;;;5032337;28;20028;-87
2022/06/05 12:45:00;;;;;;;5.40;4.90;;;19.50;57.10;;;;;;5047339;28;20084;-87
2022/06/05 12:47:50;;;;;;;5.75;4.90;;;19.40;57.00;;;;;;5053203;28;20195;-88
2022/06/05 12:50:31;;;;;;;4.90;4.50;;;19.30;57.10;;;;;;5075900;28;20183;-90
2022/06/05 12:53:23;;;;;;;4.88;4.50;;;19.20;57.10;;;;;;5056129;28;20048;-94
2022/06/05 12:55:54;;;;;;;5.15;4.68;;;19.20;57.80;;;;;;5066303;28;20510;-78
2022/06/05 12:58:26;;;;;;;5.82;4.72;;;19.20;57.20;;;;;;5064016;28;20024;-80
2022/06/05 13:01:11;;;;;;;5.03;4.53;;;19.20;57.40;;;;;;5069143;28;20094;-79
2022/06/05 13:03:57;;;;;;;4.22;3.92;;;19.10;57.50;;;;;;5067806;28;20480;-75
2022/06/05 13:06:38;;;;;;;4.15;3.67;;;19.20;57.90;;;;;;5067736;28;20039;-75
2022/06/05 13:09:48;;;;;;;4.88;4.05;;;19.20;57.80;;;;;;5057348;28;20036;-76
2022/06/05 13:12:41;;;;;;;4.00;3.70;;;19.20;57.90;;;;;;5041311;28;20399;-75
2022/06/05 13:15:33;;;;;;;4.57;4.25;;;19.30;57.90;;;;;;5049050;28;20051;-76
2022/06/05 13:18:21;;;;;;;4.47;3.90;;;19.40;58.10;;;;;;5065675;28;20028;-76
2022/06/05 13:21:17;;;;;;;4.07;3.63;;;19.40;57.90;;;;;;5067546;28;20864;-75
2022/06/05 13:24:10;;;;;;;4.38;3.97;;;19.40;57.90;;;;;;5058346;28;20550;-75
2022/06/05 13:26:47;;;;;;;5.18;4.68;;;19.50;58.10;;;;;;5060376;28;20140;-74
2022/06/05 13:29:22;;;;;;;4.82;4.43;;;19.50;58.00;;;;;;5043794;28;20040;-75
2022/06/05 13:31:57;;;;;;;4.40;3.90;;;19.50;58.00;;;;;;5030240;28;20029;-77
2022/06/05 13:34:38;;;;;;;5.28;4.15;;;19.50;58.10;;;;;;5062224;28;20131;-76
2022/06/05 13:37:31;;;;;;;4.88;4.25;;;19.50;58.10;;;;;;5066282;28;20124;-76
2022/06/05 13:40:13;;;;;;;3.92;3.63;;;19.50;58.20;;;;;;5058819;28;20549;-76
2022/06/05 13:42:41;;;;;;;4.90;4.50;;;19.50;58.10;;;;;;5059811;28;20026;-74